Time;durP1;ratioP1;P1;durP2;ratioP2;P2;SDS_P1;SDS_P2;PMS_P1;PMS_P2;Temp;Humidity;BMP_temperature;BMP_pressure;BME280_temperature;BME280_humidity;BME280_pressure;Samples;Min_cycle;Max_cycle;Signal;HPM_P1;HPM_P2
2023/09/30 00:00:41;;;;;;;21.00;8.32;;;;;;;;;;6124226;28;20052;-78
2023/09/30 00:03:42;;;;;;;15.70;7.95;;;;;;;;;;6118697;28;20048;-79
2023/09/30 00:06:44;;;;;;;16.98;7.88;;;;;;;;;;6110468;28;20399;-77
2023/09/30 00:14:33;;;;;;;17.58;8.38;;;;;;;;;;6103696;28;20039;-77
2023/09/30 00:17:35;;;;;;;13.48;8.30;;;;;;;;;;6105367;28;20048;-79
2023/09/30 00:20:37;;;;;;;13.95;8.60;;;;;;;;;;6104716;28;20052;-80
2023/09/30 00:23:38;;;;;;;17.08;8.52;;;;;;;;;;6117064;28;20052;-80
2023/09/30 00:26:40;;;;;;;16.75;8.45;;;;;;;;;;6113430;28;20054;-76
2023/09/30 00:29:42;;;;;;;20.48;9.27;;;;;;;;;;6122155;28;20055;-80
2023/09/30 00:32:43;;;;;;;15.20;8.70;;;;;;;;;;6117089;28;20471;-79
2023/09/30 00:35:46;;;;;;;18.35;9.07;;;;;;;;;;6117086;28;20142;-80
2023/09/30 00:38:47;;;;;;;14.73;9.02;;;;;;;;;;6110796;28;20517;-80
2023/09/30 00:41:49;;;;;;;17.65;9.25;;;;;;;;;;6118063;28;20047;-81
2023/09/30 00:44:51;;;;;;;16.42;8.45;;;;;;;;;;6113336;28;20062;-80
2023/09/30 00:47:53;;;;;;;17.67;8.70;;;;;;;;;;6119732;28;20047;-81
2023/09/30 00:50:56;;;;;;;18.00;8.90;;;;;;;;;;6118599;28;20043;-80
2023/09/30 00:53:59;;;;;;;14.77;8.38;;;;;;;;;;6103985;28;20456;-79
2023/09/30 00:57:02;;;;;;;16.35;9.23;;;;;;;;;;6110989;28;20040;-78
2023/09/30 01:00:06;;;;;;;16.80;8.15;;;;;;;;;;6107542;28;20055;-80
2023/09/30 01:03:08;;;;;;;11.15;7.55;;;;;;;;;;6101725;28;20074;-81
2023/09/30 01:06:10;;;;;;;13.85;8.02;;;;;;;;;;6102493;28;20044;-79
2023/09/30 01:09:12;;;;;;;13.70;8.52;;;;;;;;;;6119686;28;20063;-79
2023/09/30 01:12:14;;;;;;;14.27;8.10;;;;;;;;;;6118205;28;20127;-78
2023/09/30 01:15:16;;;;;;;13.00;7.95;;;;;;;;;;6117913;28;20062;-81
2023/09/30 01:18:18;;;;;;;16.10;9.23;;;;;;;;;;6121925;28;20506;-80
2023/09/30 01:21:20;;;;;;;13.82;8.40;;;;;;;;;;6119434;28;20059;-79
2023/09/30 01:24:22;;;;;;;14.10;8.10;;;;;;;;;;6108019;28;20051;-80
2023/09/30 01:27:25;;;;;;;14.15;8.10;;;;;;;;;;6102099;28;20487;-80
2023/09/30 01:30:27;;;;;;;14.50;8.35;;;;;;;;;;6109938;28;20063;-79
2023/09/30 01:33:29;;;;;;;14.95;8.88;;;;;;;;;;6119364;28;20080;-76
2023/09/30 01:36:31;;;;;;;17.20;9.50;;;;;;;;;;6117539;28;20049;-78
2023/09/30 01:39:33;;;;;;;15.32;8.82;;;;;;;;;;6118699;28;20058;-79
2023/09/30 01:42:35;;;;;;;18.05;7.95;;;;;;;;;;6104899;28;20068;-80
2023/09/30 01:45:37;;;;;;;12.93;8.40;;;;;;;;;;6121941;28;20131;-80
2023/09/30 01:48:39;;;;;;;16.13;7.85;;;;;;;;;;6107919;28;20486;-80
2023/09/30 01:51:41;;;;;;;16.92;7.97;;;;;;;;;;6114755;28;20056;-79
2023/09/30 01:54:43;;;;;;;14.45;7.80;;;;;;;;;;6106660;28;20181;-75
2023/09/30 01:57:45;;;;;;;15.52;8.10;;;;;;;;;;6083027;29;20060;-76
2023/09/30 02:00:46;;;;;;;15.38;8.25;;;;;;;;;;6122473;28;20063;-77
2023/09/30 02:03:49;;;;;;;16.98;7.72;;;;;;;;;;6103112;28;20052;-79
2023/09/30 02:06:51;;;;;;;14.80;8.10;;;;;;;;;;6102449;28;20051;-78
2023/09/30 02:09:53;;;;;;;13.00;7.70;;;;;;;;;;6119751;28;20181;-78
2023/09/30 02:12:55;;;;;;;15.55;8.40;;;;;;;;;;6080403;28;20059;-80
2023/09/30 02:15:57;;;;;;;14.83;8.80;;;;;;;;;;6118830;28;20052;-78
2023/09/30 02:18:59;;;;;;;19.92;8.70;;;;;;;;;;6105883;28;20040;-81
2023/09/30 02:22:01;;;;;;;12.57;7.45;;;;;;;;;;6115869;28;20055;-81
2023/09/30 02:25:07;;;;;;;14.77;8.25;;;;;;;;;;6109336;28;20044;-81
2023/09/30 02:28:09;;;;;;;13.30;8.38;;;;;;;;;;6106248;28;20125;-79
2023/09/30 02:31:11;;;;;;;17.25;7.93;;;;;;;;;;6120297;28;20047;-81
2023/09/30 02:34:13;;;;;;;12.98;7.35;;;;;;;;;;6118454;28;20075;-81
2023/09/30 02:37:15;;;;;;;15.93;8.77;;;;;;;;;;6116734;28;20048;-81
2023/09/30 02:40:17;;;;;;;13.30;7.72;;;;;;;;;;6127950;28;20066;-80
2023/09/30 02:43:19;;;;;;;14.77;8.15;;;;;;;;;;6096982;28;20059;-80
2023/09/30 02:46:23;;;;;;;13.93;7.53;;;;;;;;;;6092953;28;20419;-78
2023/09/30 02:49:24;;;;;;;16.23;7.75;;;;;;;;;;6111717;28;20192;-78
2023/09/30 02:52:28;;;;;;;12.32;7.25;;;;;;;;;;6100276;28;20043;-80
2023/09/30 02:55:30;;;;;;;15.00;7.72;;;;;;;;;;6131840;28;20048;-81
2023/09/30 02:58:32;;;;;;;12.43;6.72;;;;;;;;;;6106052;28;20048;-79
2023/09/30 03:01:34;;;;;;;14.20;8.25;;;;;;;;;;6106783;28;20052;-80
2023/09/30 03:04:36;;;;;;;11.20;6.57;;;;;;;;;;6091631;28;20071;-80
2023/09/30 03:07:38;;;;;;;11.95;6.57;;;;;;;;;;6106773;28;20061;-80
2023/09/30 03:10:40;;;;;;;14.68;6.80;;;;;;;;;;6085927;29;20169;-78
2023/09/30 03:13:42;;;;;;;11.32;6.93;;;;;;;;;;6103335;28;20048;-77
2023/09/30 03:16:44;;;;;;;12.27;7.15;;;;;;;;;;6103005;28;20130;-78
2023/09/30 03:19:46;;;;;;;11.45;7.05;;;;;;;;;;6108501;28;20059;-80
2023/09/30 03:22:48;;;;;;;12.32;6.72;;;;;;;;;;6108693;28;20111;-78
2023/09/30 03:25:49;;;;;;;14.27;6.57;;;;;;;;;;6112894;28;20039;-80
2023/09/30 03:28:51;;;;;;;12.90;6.85;;;;;;;;;;6110120;28;20868;-77
2023/09/30 03:31:53;;;;;;;14.15;7.05;;;;;;;;;;6121319;28;20055;-77
2023/09/30 03:34:58;;;;;;;15.63;7.05;;;;;;;;;;6105618;28;20462;-76
2023/09/30 03:38:02;;;;;;;13.10;6.80;;;;;;;;;;6109351;28;20405;-79
2023/09/30 03:41:03;;;;;;;13.05;6.75;;;;;;;;;;6127319;28;20055;-78
2023/09/30 03:44:08;;;;;;;14.82;7.55;;;;;;;;;;6105150;28;20063;-81
2023/09/30 03:47:10;;;;;;;14.07;6.50;;;;;;;;;;6125825;28;20051;-79
2023/09/30 03:50:14;;;;;;;15.88;6.72;;;;;;;;;;6104614;28;20125;-79
2023/09/30 03:53:17;;;;;;;11.73;6.65;;;;;;;;;;6123254;28;20110;-78
2023/09/30 03:56:19;;;;;;;13.63;7.57;;;;;;;;;;6111161;28;20462;-79
2023/09/30 03:59:21;;;;;;;13.17;6.57;;;;;;;;;;6122532;28;20262;-81
2023/09/30 04:02:23;;;;;;;11.85;7.22;;;;;;;;;;6107840;28;20548;-80
2023/09/30 04:05:29;;;;;;;14.65;7.20;;;;;;;;;;6125640;28;20040;-78
2023/09/30 04:08:33;;;;;;;14.23;7.47;;;;;;;;;;6118673;28;20043;-80
2023/09/30 04:11:35;;;;;;;13.88;8.00;;;;;;;;;;6100859;28;20046;-79
2023/09/30 04:14:37;;;;;;;12.55;8.00;;;;;;;;;;6088881;28;20581;-78
2023/09/30 04:17:39;;;;;;;12.32;7.53;;;;;;;;;;6105485;28;20616;-80
2023/09/30 04:20:41;;;;;;;15.20;7.70;;;;;;;;;;6106231;28;20063;-81
2023/09/30 04:23:43;;;;;;;12.00;6.93;;;;;;;;;;6103143;28;20517;-76
2023/09/30 04:26:45;;;;;;;13.82;6.88;;;;;;;;;;6122126;28;20052;-78
2023/09/30 04:29:49;;;;;;;13.93;8.57;;;;;;;;;;6107840;28;20052;-80
2023/09/30 04:32:51;;;;;;;16.10;7.85;;;;;;;;;;6122862;28;20490;-76
2023/09/30 04:35:52;;;;;;;13.05;7.90;;;;;;;;;;6105039;28;20250;-79
2023/09/30 04:38:54;;;;;;;15.43;8.20;;;;;;;;;;6127151;28;20058;-78
2023/09/30 04:41:57;;;;;;;16.33;8.70;;;;;;;;;;6109018;28;20063;-79
2023/09/30 04:44:59;;;;;;;17.60;8.13;;;;;;;;;;6107011;28;20048;-79
2023/09/30 04:48:02;;;;;;;14.68;7.35;;;;;;;;;;6120091;28;20782;-77
2023/09/30 04:51:08;;;;;;;12.77;6.90;;;;;;;;;;6111808;28;20134;-78
2023/09/30 04:54:10;;;;;;;20.00;8.10;;;;;;;;;;6130768;28;20432;-78
2023/09/30 04:57:12;;;;;;;13.98;7.47;;;;;;;;;;6114247;28;20040;-77
2023/09/30 05:00:17;;;;;;;13.07;7.60;;;;;;;;;;6105274;28;20043;-81
2023/09/30 05:03:19;;;;;;;14.68;7.90;;;;;;;;;;6120171;28;20059;-78
2023/09/30 05:06:21;;;;;;;17.10;7.88;;;;;;;;;;6102981;28;20044;-78
2023/09/30 05:09:22;;;;;;;14.48;7.78;;;;;;;;;;6113264;28;20051;-79
2023/09/30 05:12:25;;;;;;;16.23;8.30;;;;;;;;;;6110551;28;20055;-80
2023/09/30 05:15:29;;;;;;;14.52;8.27;;;;;;;;;;6123972;28;20047;-79
2023/09/30 05:18:31;;;;;;;13.55;7.80;;;;;;;;;;6112213;28;20044;-78
2023/09/30 05:21:33;;;;;;;17.02;8.52;;;;;;;;;;6107746;28;20260;-78
2023/09/30 05:24:35;;;;;;;14.52;7.70;;;;;;;;;;6117600;28;20054;-79
2023/09/30 05:27:37;;;;;;;10.93;6.90;;;;;;;;;;6105949;28;20063;-76
2023/09/30 05:30:40;;;;;;;14.30;7.15;;;;;;;;;;6124566;28;20067;-80
2023/09/30 05:33:42;;;;;;;13.93;6.75;;;;;;;;;;6099703;28;20044;-80
2023/09/30 05:36:44;;;;;;;16.40;7.70;;;;;;;;;;6103567;28;20046;-79
2023/09/30 05:39:45;;;;;;;19.70;8.07;;;;;;;;;;6105169;28;20182;-79
2023/09/30 05:42:51;;;;;;;16.25;8.25;;;;;;;;;;6115173;28;20048;-81
2023/09/30 05:45:54;;;;;;;20.15;9.02;;;;;;;;;;6114775;28;20433;-78
2023/09/30 05:48:59;;;;;;;24.85;10.20;;;;;;;;;;6094458;28;20067;-76
2023/09/30 05:52:02;;;;;;;30.55;10.65;;;;;;;;;;6102567;28;20094;-79
2023/09/30 05:55:04;;;;;;;32.90;10.98;;;;;;;;;;6106045;28;20281;-82
2023/09/30 05:58:06;;;;;;;30.00;11.68;;;;;;;;;;6109841;28;20076;-79
2023/09/30 06:01:12;;;;;;;28.58;11.57;;;;;;;;;;6103606;28;20407;-78
2023/09/30 06:04:14;;;;;;;27.90;11.70;;;;;;;;;;6103319;28;20050;-81
2023/09/30 06:07:18;;;;;;;22.33;9.60;;;;;;;;;;6105094;28;20051;-78
2023/09/30 06:10:20;;;;;;;25.05;10.25;;;;;;;;;;6102704;28;20451;-79
2023/09/30 06:13:22;;;;;;;22.70;10.70;;;;;;;;;;6115688;28;20075;-76
2023/09/30 06:16:26;;;;;;;25.48;10.45;;;;;;;;;;6106590;28;20044;-78
2023/09/30 06:19:28;;;;;;;24.23;9.73;;;;;;;;;;6115261;28;20495;-81
2023/09/30 06:22:30;;;;;;;23.75;10.82;;;;;;;;;;6105919;28;20062;-79
2023/09/30 06:25:33;;;;;;;28.83;10.20;;;;;;;;;;6103485;28;20067;-80
2023/09/30 06:28:40;;;;;;;20.45;9.73;;;;;;;;;;6116477;28;20072;-81
2023/09/30 06:31:43;;;;;;;27.65;10.50;;;;;;;;;;6099859;28;20059;-80
2023/09/30 06:34:45;;;;;;;22.10;8.93;;;;;;;;;;6097836;28;20074;-80
2023/09/30 06:37:46;;;;;;;25.00;9.48;;;;;;;;;;6100416;28;20048;-81
2023/09/30 06:40:49;;;;;;;30.65;9.55;;;;;;;;;;6097288;28;20062;-80
2023/09/30 06:43:51;;;;;;;21.13;10.18;;;;;;;;;;6119191;28;20056;-82
2023/09/30 06:46:54;;;;;;;26.25;9.88;;;;;;;;;;6107985;28;20758;-81
2023/09/30 06:49:56;;;;;;;20.65;8.85;;;;;;;;;;6123122;28;20142;-76
2023/09/30 06:52:59;;;;;;;20.25;8.70;;;;;;;;;;6104164;28;20059;-78
2023/09/30 06:56:04;;;;;;;18.63;9.20;;;;;;;;;;6115760;28;20052;-77
2023/09/30 06:59:06;;;;;;;29.77;10.15;;;;;;;;;;6101401;28;20063;-78
2023/09/30 07:02:08;;;;;;;21.08;8.23;;;;;;;;;;6116191;28;20044;-81
2023/09/30 07:05:12;;;;;;;21.27;9.52;;;;;;;;;;6115459;28;20048;-79
2023/09/30 07:08:14;;;;;;;19.70;8.82;;;;;;;;;;6114574;28;20071;-79
2023/09/30 07:11:16;;;;;;;23.73;10.13;;;;;;;;;;6109288;28;20115;-79
2023/09/30 07:14:18;;;;;;;14.98;7.72;;;;;;;;;;6120888;28;20048;-79
2023/09/30 07:17:20;;;;;;;14.67;7.57;;;;;;;;;;6104576;28;20073;-80
2023/09/30 07:20:23;;;;;;;16.08;7.47;;;;;;;;;;6110572;28;20188;-78
2023/09/30 07:23:30;;;;;;;15.23;7.20;;;;;;;;;;6112955;28;20039;-80
2023/09/30 07:26:32;;;;;;;13.68;6.72;;;;;;;;;;6120774;28;20055;-79
2023/09/30 07:29:33;;;;;;;13.73;6.45;;;;;;;;;;6113782;28;20051;-80
2023/09/30 07:32:35;;;;;;;14.40;7.05;;;;;;;;;;6118949;28;20048;-77
2023/09/30 07:35:38;;;;;;;11.70;6.40;;;;;;;;;;6120078;28;20060;-80
2023/09/30 07:38:40;;;;;;;17.55;7.57;;;;;;;;;;6111363;28;20051;-79
2023/09/30 07:41:42;;;;;;;15.13;7.20;;;;;;;;;;6105310;28;20535;-80
2023/09/30 07:44:44;;;;;;;15.07;7.53;;;;;;;;;;6115643;28;20064;-81
2023/09/30 07:47:46;;;;;;;17.17;7.97;;;;;;;;;;6104209;28;20071;-78
2023/09/30 07:50:48;;;;;;;17.33;7.35;;;;;;;;;;6124276;28;20050;-81
2023/09/30 07:53:50;;;;;;;16.25;7.35;;;;;;;;;;6125916;28;20047;-81
2023/09/30 07:56:52;;;;;;;14.37;7.67;;;;;;;;;;6105886;28;20059;-81
2023/09/30 07:59:54;;;;;;;20.20;7.30;;;;;;;;;;6123616;28;20422;-80
2023/09/30 08:02:56;;;;;;;18.80;8.23;;;;;;;;;;6105845;28;20040;-80
2023/09/30 08:05:58;;;;;;;19.17;7.55;;;;;;;;;;6123376;28;20056;-78
2023/09/30 08:09:00;;;;;;;17.20;7.47;;;;;;;;;;6125096;28;20039;-79
2023/09/30 08:12:01;;;;;;;15.82;7.65;;;;;;;;;;6106966;28;20048;-80
2023/09/30 08:15:05;;;;;;;11.88;7.13;;;;;;;;;;6119724;28;20048;-81
2023/09/30 08:18:08;;;;;;;15.35;7.10;;;;;;;;;;6087633;29;20406;-81
2023/09/30 08:21:11;;;;;;;15.32;7.03;;;;;;;;;;6087324;28;20103;-81
2023/09/30 08:24:13;;;;;;;15.32;8.15;;;;;;;;;;6119572;28;20048;-80
2023/09/30 08:27:15;;;;;;;15.98;7.90;;;;;;;;;;6121969;28;20044;-78
2023/09/30 08:30:17;;;;;;;18.63;8.23;;;;;;;;;;6123756;28;20047;-78
2023/09/30 08:33:18;;;;;;;15.10;7.60;;;;;;;;;;6117876;28;20088;-78
2023/09/30 08:36:20;;;;;;;17.50;8.23;;;;;;;;;;6114762;28;20125;-80
2023/09/30 08:39:23;;;;;;;15.32;7.30;;;;;;;;;;6123814;28;20069;-79
2023/09/30 08:42:32;;;;;;;11.98;6.57;;;;;;;;;;6121093;28;20051;-79
2023/09/30 08:45:39;;;;;;;14.18;7.50;;;;;;;;;;6103456;28;20492;-77
2023/09/30 08:48:41;;;;;;;16.80;7.47;;;;;;;;;;6111654;28;20292;-79
2023/09/30 08:51:43;;;;;;;14.40;7.47;;;;;;;;;;6122964;28;20187;-79
2023/09/30 08:54:45;;;;;;;13.23;6.57;;;;;;;;;;6112735;28;20059;-78
2023/09/30 08:57:48;;;;;;;12.95;7.18;;;;;;;;;;6121708;28;20055;-79
2023/09/30 09:00:50;;;;;;;12.23;6.13;;;;;;;;;;6108947;28;20050;-76
2023/09/30 09:03:53;;;;;;;10.35;5.45;;;;;;;;;;6107154;28;20076;-79
2023/09/30 09:06:55;;;;;;;9.88;5.25;;;;;;;;;;6120118;28;20063;-80
2023/09/30 09:10:12;;;;;;;8.80;4.75;;;;;;;;;;6122750;28;20071;-78
2023/09/30 09:13:14;;;;;;;13.60;6.30;;;;;;;;;;6119181;28;20651;-79
2023/09/30 09:16:20;;;;;;;12.50;5.78;;;;;;;;;;6102569;28;20052;-81
2023/09/30 09:19:22;;;;;;;9.27;5.13;;;;;;;;;;6110274;28;20051;-81
2023/09/30 09:22:24;;;;;;;7.33;4.60;;;;;;;;;;6105177;28;20059;-79
2023/09/30 09:25:26;;;;;;;8.98;4.55;;;;;;;;;;6109971;28;20098;-81
2023/09/30 09:28:35;;;;;;;7.82;4.18;;;;;;;;;;6105886;28;20058;-81
2023/09/30 09:31:37;;;;;;;5.15;2.85;;;;;;;;;;6095474;28;20044;-80
2023/09/30 09:34:40;;;;;;;5.83;1.80;;;;;;;;;;6101551;28;20062;-79
2023/09/30 09:37:42;;;;;;;8.10;2.47;;;;;;;;;;6107683;28;20067;-79
2023/09/30 09:40:44;;;;;;;5.88;2.13;;;;;;;;;;6103894;28;20052;-77
2023/09/30 09:43:49;;;;;;;6.47;1.80;;;;;;;;;;6102328;28;20055;-81
2023/09/30 09:46:51;;;;;;;8.60;1.90;;;;;;;;;;6106073;28;20044;-82
2023/09/30 09:49:53;;;;;;;5.47;1.67;;;;;;;;;;6105335;28;20455;-79
2023/09/30 09:52:59;;;;;;;3.72;1.58;;;;;;;;;;6108595;28;20050;-79
2023/09/30 09:56:03;;;;;;;11.85;3.10;;;;;;;;;;6122566;28;20047;-81
2023/09/30 09:59:06;;;;;;;13.98;3.72;;;;;;;;;;6106396;28;20397;-81
2023/09/30 10:02:14;;;;;;;4.55;1.45;;;;;;;;;;6118293;28;20050;-78
2023/09/30 10:05:17;;;;;;;5.32;1.30;;;;;;;;;;6113174;28;20051;-81
2023/09/30 10:08:28;;;;;;;5.32;1.98;;;;;;;;;;6123133;28;20028;-77
2023/09/30 10:11:30;;;;;;;6.93;1.60;;;;;;;;;;6124017;28;20055;-78
2023/09/30 10:14:33;;;;;;;6.22;1.35;;;;;;;;;;6132913;28;20059;-78
2023/09/30 10:18:03;;;;;;;6.93;1.63;;;;;;;;;;6149837;28;20740;-80
2023/09/30 10:21:09;;;;;;;4.00;1.00;;;;;;;;;;6126357;28;20060;-78
2023/09/30 10:24:23;;;;;;;4.53;1.30;;;;;;;;;;6145752;28;20225;-81
2023/09/30 10:27:25;;;;;;;3.45;1.30;;;;;;;;;;6134619;28;20107;-79
2023/09/30 10:30:27;;;;;;;4.93;1.20;;;;;;;;;;6125935;28;20052;-81
2023/09/30 10:33:28;;;;;;;7.97;2.27;;;;;;;;;;6134063;28;20076;-79
2023/09/30 10:36:38;;;;;;;40.72;9.63;;;;;;;;;;6133292;28;20748;-78
2023/09/30 10:40:28;;;;;;;6.00;1.65;;;;;;;;;;6109610;28;20047;-74
2023/09/30 10:43:41;;;;;;;13.13;3.72;;;;;;;;;;6083248;28;20150;-73
2023/09/30 10:46:43;;;;;;;5.55;1.30;;;;;;;;;;6115918;28;20047;-73
2023/09/30 10:49:45;;;;;;;3.83;1.23;;;;;;;;;;6109663;28;20047;-75
2023/09/30 10:52:47;;;;;;;5.30;1.48;;;;;;;;;;6096367;28;20067;-73
2023/09/30 10:55:55;;;;;;;8.63;1.90;;;;;;;;;;6093785;28;20568;-76
2023/09/30 10:58:57;;;;;;;3.17;1.20;;;;;;;;;;6106319;28;20043;-75
2023/09/30 11:01:59;;;;;;;4.88;1.60;;;;;;;;;;6096105;28;20051;-73
2023/09/30 11:05:11;;;;;;;5.72;1.30;;;;;;;;;;6092060;28;20178;-76
2023/09/30 11:08:17;;;;;;;5.35;1.45;;;;;;;;;;6093496;28;20048;-74
2023/09/30 11:11:18;;;;;;;4.07;1.50;;;;;;;;;;6095349;28;20051;-75
2023/09/30 11:14:29;;;;;;;3.20;1.20;;;;;;;;;;6086914;28;20490;-75
2023/09/30 11:17:31;;;;;;;3.50;1.30;;;;;;;;;;6093606;28;20187;-74
2023/09/30 11:20:33;;;;;;;6.05;1.40;;;;;;;;;;6114332;28;20079;-77
2023/09/30 11:23:37;;;;;;;4.35;1.42;;;;;;;;;;6109850;28;20051;-75
2023/09/30 11:26:41;;;;;;;4.75;1.17;;;;;;;;;;6096044;28;20048;-74
2023/09/30 11:29:49;;;;;;;5.53;1.50;;;;;;;;;;6110013;28;20052;-75
2023/09/30 11:32:59;;;;;;;3.38;1.10;;;;;;;;;;6097699;28;20047;-75
2023/09/30 11:36:03;;;;;;;4.15;1.13;;;;;;;;;;6103792;28;20048;-75
2023/09/30 11:39:05;;;;;;;3.60;1.27;;;;;;;;;;6107391;28;21231;-77
2023/09/30 11:42:19;;;;;;;5.95;1.42;;;;;;;;;;6082327;28;20422;-76
2023/09/30 11:45:22;;;;;;;;;;;;;;;;;;6103704;28;20044;-76
2023/09/30 11:48:26;;;;;;;4.65;1.30;;;;;;;;;;6120584;28;19922;-76
2023/09/30 11:51:46;;;;;;;4.25;1.30;;;;;;;;;;6118085;28;20048;-77
2023/09/30 11:54:48;;;;;;;6.25;1.40;;;;;;;;;;6124918;28;20102;-77
2023/09/30 11:57:54;;;;;;;5.13;1.33;;;;;;;;;;6098284;28;20043;-77
2023/09/30 12:00:59;;;;;;;3.45;1.25;;;;;;;;;;6105179;28;20043;-79
2023/09/30 12:04:01;;;;;;;2.97;1.20;;;;;;;;;;6107945;28;20483;-75
2023/09/30 12:07:03;;;;;;;4.27;1.27;;;;;;;;;;6108006;28;20352;-78
2023/09/30 12:10:05;;;;;;;5.18;1.58;;;;;;;;;;6109954;28;20421;-76
2023/09/30 12:13:07;;;;;;;3.75;1.27;;;;;;;;;;6101415;28;20187;-77
2023/09/30 12:16:09;;;;;;;4.35;1.25;;;;;;;;;;6100550;28;20111;-76
2023/09/30 12:19:13;;;;;;;3.30;1.30;;;;;;;;;;6098377;28;20062;-77
2023/09/30 12:22:15;;;;;;;4.65;1.40;;;;;;;;;;6103279;28;20044;-77
2023/09/30 12:25:19;;;;;;;4.13;1.52;;;;;;;;;;6102143;28;20139;-77
2023/09/30 12:28:20;;;;;;;6.38;1.80;;;;;;;;;;6109238;28;20051;-76
2023/09/30 12:31:23;;;;;;;4.80;1.37;;;;;;;;;;6103326;28;20195;-79
2023/09/30 12:34:26;;;;;;;4.38;1.65;;;;;;;;;;6123915;28;20439;-81
2023/09/30 12:37:29;;;;;;;4.88;1.42;;;;;;;;;;6115393;28;20576;-79
2023/09/30 12:40:30;;;;;;;4.18;1.70;;;;;;;;;;6089336;28;20593;-76
2023/09/30 12:43:32;;;;;;;2.97;1.23;;;;;;;;;;6084379;28;20054;-75
2023/09/30 12:46:36;;;;;;;4.63;1.52;;;;;;;;;;6096863;28;20414;-75
2023/09/30 12:49:38;;;;;;;6.53;1.35;;;;;;;;;;6099796;28;20221;-76
2023/09/30 12:52:40;;;;;;;5.50;1.63;;;;;;;;;;6117883;28;20067;-75
2023/09/30 12:55:42;;;;;;;3.73;1.57;;;;;;;;;;6099952;28;20040;-78
2023/09/30 12:58:44;;;;;;;6.93;1.90;;;;;;;;;;6086753;28;20048;-75
2023/09/30 13:01:47;;;;;;;3.47;1.52;;;;;;;;;;6096930;28;20535;-75
2023/09/30 13:04:49;;;;;;;4.05;1.10;;;;;;;;;;6113042;28;20507;-75
2023/09/30 13:07:52;;;;;;;6.10;1.67;;;;;;;;;;6096812;28;20047;-75
2023/09/30 13:10:54;;;;;;;3.60;1.13;;;;;;;;;;6110160;28;20310;-76
2023/09/30 13:13:56;;;;;;;5.57;1.63;;;;;;;;;;6100660;28;20463;-74
2023/09/30 13:16:58;;;;;;;4.63;1.70;;;;;;;;;;6092957;28;20058;-76
2023/09/30 13:20:04;;;;;;;3.42;1.77;;;;;;;;;;6097735;28;20135;-78
2023/09/30 13:23:06;;;;;;;4.85;1.70;;;;;;;;;;6104620;28;20047;-78
2023/09/30 13:26:08;;;;;;;5.00;1.70;;;;;;;;;;6112574;28;20040;-79
2023/09/30 13:29:10;;;;;;;4.47;1.52;;;;;;;;;;6110127;28;20051;-79
2023/09/30 13:32:12;;;;;;;4.43;1.70;;;;;;;;;;6117016;28;20051;-79
2023/09/30 13:35:13;;;;;;;4.05;1.55;;;;;;;;;;6105836;28;20048;-79
2023/09/30 13:38:16;;;;;;;4.93;1.73;;;;;;;;;;6108939;28;20065;-77
2023/09/30 13:41:18;;;;;;;4.38;1.60;;;;;;;;;;6100591;28;20058;-77
2023/09/30 13:44:19;;;;;;;3.75;1.48;;;;;;;;;;6107339;28;20047;-78
2023/09/30 13:47:21;;;;;;;3.20;1.80;;;;;;;;;;6106294;28;20126;-76
2023/09/30 13:50:23;;;;;;;4.80;1.58;;;;;;;;;;6103527;28;20055;-79
2023/09/30 13:53:25;;;;;;;6.23;1.53;;;;;;;;;;6107291;28;20044;-80
2023/09/30 13:56:27;;;;;;;3.85;1.40;;;;;;;;;;6126312;28;20043;-79
2023/09/30 13:59:29;;;;;;;;;;;;;;;;;;6105139;28;20051;-82
2023/09/30 14:02:31;;;;;;;3.80;1.80;;;;;;;;;;6094526;28;19927;-77
2023/09/30 14:05:32;;;;;;;3.42;1.50;;;;;;;;;;6104793;28;20138;-81
2023/09/30 14:08:35;;;;;;;5.40;1.60;;;;;;;;;;6106071;28;20123;-78
2023/09/30 14:11:36;;;;;;;5.47;1.80;;;;;;;;;;6111865;28;20478;-76
2023/09/30 14:14:38;;;;;;;3.10;1.38;;;;;;;;;;6122829;28;20060;-76
2023/09/30 14:17:40;;;;;;;4.00;2.00;;;;;;;;;;6117982;28;20050;-78
2023/09/30 14:20:41;;;;;;;3.40;1.63;;;;;;;;;;6109499;28;20162;-77
2023/09/30 14:23:43;;;;;;;4.80;1.52;;;;;;;;;;6106736;28;20048;-76
2023/09/30 14:26:45;;;;;;;4.90;1.55;;;;;;;;;;6120800;28;20088;-78
2023/09/30 14:29:46;;;;;;;5.32;1.52;;;;;;;;;;6112243;28;20051;-78
2023/09/30 14:32:48;;;;;;;6.65;1.98;;;;;;;;;;6113694;28;20071;-76
2023/09/30 14:35:50;;;;;;;4.55;1.70;;;;;;;;;;6121079;28;20048;-79
2023/09/30 14:38:51;;;;;;;5.30;1.90;;;;;;;;;;6132276;28;20055;-78
2023/09/30 14:42:08;;;;;;;4.45;1.70;;;;;;;;;;6120706;28;20124;-78
2023/09/30 14:45:10;;;;;;;4.40;1.67;;;;;;;;;;6102534;28;20377;-78
2023/09/30 14:48:14;;;;;;;7.13;1.97;;;;;;;;;;6101018;28;20044;-80
2023/09/30 14:51:21;;;;;;;6.28;1.75;;;;;;;;;;6107952;28;20135;-76
2023/09/30 14:54:23;;;;;;;3.92;1.70;;;;;;;;;;6122184;28;20052;-77
2023/09/30 14:57:25;;;;;;;5.88;1.88;;;;;;;;;;6100465;28;20433;-77
2023/09/30 15:00:27;;;;;;;5.28;2.17;;;;;;;;;;6107456;28;20055;-77
2023/09/30 15:03:30;;;;;;;4.80;2.10;;;;;;;;;;6100131;28;20722;-76
2023/09/30 15:06:32;;;;;;;6.20;2.63;;;;;;;;;;6098645;28;20048;-76
2023/09/30 15:09:34;;;;;;;3.85;2.20;;;;;;;;;;6092710;28;20043;-76
2023/09/30 15:12:36;;;;;;;8.00;2.50;;;;;;;;;;6077532;28;20319;-77
2023/09/30 15:15:38;;;;;;;7.57;2.83;;;;;;;;;;6094526;28;20078;-76
2023/09/30 15:18:40;;;;;;;4.63;2.03;;;;;;;;;;6096874;28;20130;-76
2023/09/30 15:21:42;;;;;;;6.25;2.50;;;;;;;;;;6116024;28;20055;-77
2023/09/30 15:24:43;;;;;;;5.10;2.53;;;;;;;;;;6085746;28;20055;-75
2023/09/30 15:27:45;;;;;;;4.38;2.53;;;;;;;;;;6117408;28;20048;-76
2023/09/30 15:30:50;;;;;;;5.95;2.20;;;;;;;;;;6113569;28;20043;-77
2023/09/30 15:33:52;;;;;;;5.05;2.28;;;;;;;;;;6113447;28;20044;-79
2023/09/30 15:36:54;;;;;;;3.72;2.10;;;;;;;;;;6127765;28;20048;-80
2023/09/30 15:39:55;;;;;;;6.07;2.20;;;;;;;;;;6124622;28;20063;-80
2023/09/30 15:42:57;;;;;;;3.75;2.20;;;;;;;;;;6109884;28;20043;-81
2023/09/30 15:46:00;;;;;;;3.30;2.00;;;;;;;;;;6112976;28;20527;-81
2023/09/30 15:49:01;;;;;;;6.57;2.40;;;;;;;;;;6105778;28;21593;-80
2023/09/30 15:52:03;;;;;;;3.38;2.33;;;;;;;;;;6110093;28;20051;-82
2023/09/30 15:55:06;;;;;;;3.37;1.90;;;;;;;;;;6109490;28;20043;-79
2023/09/30 15:58:08;;;;;;;2.85;1.90;;;;;;;;;;6100442;28;20088;-81
2023/09/30 16:01:13;;;;;;;4.72;2.00;;;;;;;;;;6107390;28;20067;-78
2023/09/30 16:04:15;;;;;;;4.30;2.20;;;;;;;;;;6108775;28;20127;-79
2023/09/30 16:07:17;;;;;;;3.83;2.10;;;;;;;;;;6123374;28;20503;-79
2023/09/30 16:10:19;;;;;;;4.28;1.88;;;;;;;;;;6108919;28;20043;-82
2023/09/30 16:13:20;;;;;;;2.65;1.70;;;;;;;;;;6121764;28;20052;-81
2023/09/30 16:16:22;;;;;;;5.50;1.80;;;;;;;;;;6120958;28;20139;-78
2023/09/30 16:19:24;;;;;;;4.25;1.85;;;;;;;;;;6115059;28;20474;-79
2023/09/30 16:22:25;;;;;;;5.78;2.08;;;;;;;;;;6128049;28;20047;-78
2023/09/30 16:25:27;;;;;;;2.97;1.98;;;;;;;;;;6126457;28;20036;-77
2023/09/30 16:28:29;;;;;;;4.47;2.25;;;;;;;;;;6126061;28;20589;-82
2023/09/30 16:31:31;;;;;;;3.88;2.08;;;;;;;;;;6112137;28;20128;-78
2023/09/30 16:34:33;;;;;;;5.70;1.87;;;;;;;;;;6113559;28;20040;-78
2023/09/30 16:37:35;;;;;;;3.28;1.88;;;;;;;;;;6117823;28;20455;-80
2023/09/30 16:40:36;;;;;;;3.67;2.00;;;;;;;;;;6107599;28;20055;-79
2023/09/30 16:43:39;;;;;;;3.53;2.10;;;;;;;;;;6101333;28;21637;-80
2023/09/30 16:46:40;;;;;;;4.03;2.38;;;;;;;;;;6105119;28;20494;-78
2023/09/30 16:49:44;;;;;;;6.97;2.50;;;;;;;;;;6110822;28;20050;-82
2023/09/30 16:52:46;;;;;;;4.65;2.40;;;;;;;;;;6125690;28;20107;-83
2023/09/30 16:55:49;;;;;;;5.45;2.40;;;;;;;;;;6127547;28;20048;-83
2023/09/30 16:58:50;;;;;;;4.85;2.47;;;;;;;;;;6119221;28;20052;-81
2023/09/30 17:01:56;;;;;;;4.15;2.65;;;;;;;;;;6121894;28;20060;-82
2023/09/30 17:05:02;;;;;;;6.20;2.33;;;;;;;;;;6105092;28;20078;-82
2023/09/30 17:08:05;;;;;;;5.47;2.72;;;;;;;;;;6121542;28;20088;-82
2023/09/30 17:11:08;;;;;;;6.00;2.83;;;;;;;;;;6121501;28;20215;-82
2023/09/30 17:14:11;;;;;;;7.80;4.07;;;;;;;;;;6105639;28;20574;-79
2023/09/30 17:17:13;;;;;;;7.40;2.97;;;;;;;;;;6126233;28;20222;-78
2023/09/30 17:20:18;;;;;;;7.93;3.13;;;;;;;;;;6117666;28;20071;-79
2023/09/30 17:23:20;;;;;;;5.80;2.83;;;;;;;;;;6126072;28;20048;-80
2023/09/30 17:26:22;;;;;;;4.95;3.50;;;;;;;;;;6112819;28;20047;-83
2023/09/30 17:29:24;;;;;;;3.88;2.50;;;;;;;;;;6084783;28;20520;-80
2023/09/30 17:32:26;;;;;;;7.97;3.05;;;;;;;;;;6086175;28;20067;-78
2023/09/30 17:35:30;;;;;;;4.65;2.80;;;;;;;;;;6107987;28;20044;-79
2023/09/30 17:38:32;;;;;;;8.40;3.38;;;;;;;;;;6112533;28;20087;-79
2023/09/30 17:41:34;;;;;;;6.93;2.97;;;;;;;;;;6110485;28;20044;-78
2023/09/30 17:44:39;;;;;;;6.50;3.00;;;;;;;;;;6117068;28;20058;-79
2023/09/30 17:47:41;;;;;;;7.03;3.30;;;;;;;;;;6126791;28;20126;-80
2023/09/30 17:50:43;;;;;;;7.28;3.38;;;;;;;;;;6119341;28;20056;-79
2023/09/30 17:53:49;;;;;;;4.50;2.75;;;;;;;;;;6104727;28;20076;-79
2023/09/30 17:56:51;;;;;;;4.82;2.40;;;;;;;;;;6118742;28;20058;-80
2023/09/30 17:59:52;;;;;;;5.05;2.75;;;;;;;;;;6113409;28;20138;-78
2023/09/30 18:02:54;;;;;;;4.20;2.90;;;;;;;;;;6116231;28;20047;-78
2023/09/30 18:06:09;;;;;;;9.93;4.65;;;;;;;;;;6135029;28;20083;-77
2023/09/30 18:09:12;;;;;;;12.77;9.80;;;;;;;;;;6135577;28;20355;-78
2023/09/30 18:12:14;;;;;;;;;;;;;;;;;;6131022;28;20064;-77